Tiempo atmosférico en la estación meteorológica de Ayamonte, Huelva (2 m.)



Fecha
DESCASC
Temp. máxima en grados centígrados (hora)
DESCASC
Temp. mínima en grados centígrados (hora)
DESCASC
Temp. media en grados centígrados
DESCASC
Racha de viento máxima en m/sg (hora)
DESCASC
Velocidad máxima media en intervalos de 10 minutos(hora)
DESCASC
Precipitaciones diarias en mm
DESCASC
Precipitaciones de 00:00 a 06:00 en mm
DESCASC
Precipitaciones de 06:00 a 12:00 en mm
DESCASC
Precipitaciones de 12:00 a 18:00 en mm
DESCASC
Precipitaciones de 18:00 a 24:00 en mm
DESCASC
06-12-2018 22 (15:20) 11.5 (07:30) 16.8 7.22 (19:40) 3.89 (19:20) 0 0 0 0 0
05-12-2018 22.6 (15:40) 8 (08:10) 15.3 5 (22:00) 2.78 (21:10) 0.1 0 0.1 0 0
04-12-2018 18.2 (13:20) 7 (08:00) 12.6 4.44 (15:00) 2.5 (13:50) 0 0 0 0 0
03-12-2018 20.6 (15:20) 9.5 (00:00) 15.1 5.56 (00:20) 2.78 (00:10) 0 0 0 0 0
02-12-2018 18 (15:00) 8.6 (00:00) 13.3 4.72 (23:59) 2.5 (23:50) 0 0 0 0 0
01-12-2018 18.1 (14:10) 8.6 (00:00) 13.4 4.72 (09:30) 2.5 (14:40) 0 0 0 0 0
30-11-2018 16.7 (16:00) 9.4 (00:00) 13.1 7.22 (03:50) 4.17 (00:50) 2 2 0 0 0
29-11-2018 17.3 (14:10) 5.5 (00:00) 11.4 6.39 (22:40) 3.89 (23:20) 0.8 0 0 0 0.8
28-11-2018 17.4 (14:30) 5.5 (00:00) 11.4 4.72 (12:10) 2.5 (12:20) 0 0 0 0 0
27-11-2018 18 (14:40) 7.2 (00:00) 12.6 4.44 (15:00) 2.5 (05:30) 0 0 0 0 0
26-11-2018 17.3 (14:20) 7.9 (23:59) 12.6 8.89 (13:10) 3.89 (14:50) 0.1 0 0.1 0 0
25-11-2018 19.9 (14:00) 13.2 (00:00) 16.5 12.22 (20:20) 7.78 (00:10) 2.6 0.3 0 0.7 1.6
24-11-2018 18 (13:50) 6.7 (00:00) 12.3 14.17 (23:50) 8.06 (23:50) 5.5 0 0 1.5 4
23-11-2018 18.1 (13:30) 8.2 (00:00) 13.2 4.72 (18:30) 3.06 (15:40) 4.3 4.3 0 0 0
22-11-2018 13.9 (11:20) 11.1 (00:00) 12.5 6.39 (18:30) 3.33 (18:20) 10.9 0 1.9 8.6 0.4
21-11-2018 19.8 (13:30) 10.6 (00:00) 15.2 8.89 (15:50) 5.28 (16:00) 0 0 0 0 0
20-11-2018 19.1 (13:40) 11.9 (00:00) 15.5 11.11 (00:30) 5.28 (00:40) 3.8 3.1 0 0.7 0
19-11-2018 18.8 (15:20) 11.3 (00:00) 15 8.33 (15:40) 5 (15:40) 12.3 0.1 0.1 1.2 10.9
18-11-2018 17.7 (00:20) 11.5 (00:00) 14.6 15.28 (01:30) 8.61 (01:40) 64.3 45.9 14.6 3.3 0.5
17-11-2018 19.2 (11:10) 11.3 (00:00) 15.3 12.22 (20:50) 6.11 (22:20) 0 0 0 0 0
16-11-2018 20.5 (14:00) 10.3 (00:00) 15.4 5 (14:30) 2.5 (15:20) 0 0 0 0 0
15-11-2018 19.9 (13:50) 12.7 (00:00) 16.3 7.5 (11:40) 3.89 (12:10) 0 0 0 0 0
14-11-2018 21.8 (14:50) 11.1 (00:00) 16.4 6.67 (13:40) 3.61 (13:40) 0 0 0 0 0
13-11-2018 19.9 (16:30) 10.4 (00:00) 15.1 6.67 (10:40) 3.06 (10:40) 0 0 0 0 0
12-11-2018 18.2 (15:40) 13.3 (00:00) 15.8 5.56 (01:20) 3.33 (01:20) 5.7 3.6 1.8 0.1 0.2
11-11-2018 20.9 (13:20) 15 (00:00) 17.9 7.78 (23:20) 4.72 (14:40) 1.6 0.1 0.2 0 1.3
10-11-2018 20 (11:50) 11.5 (00:00) 15.8 8.33 (13:10) 4.72 (13:10) 0 0 0 0 0
09-11-2018 18.8 (15:20) 7.1 (00:00) 12.9 7.78 (17:30) 4.44 (17:40) 0 0 0 0 0

Gráficas

Temp. máximas Temp. mínimas Temp. medias Precipitaciones Rachas de viento máximas Velocidades máximas media en intervalos de 10 minutos

Datos horarios

Fecha y hora oficial Temperatura (ºC) Velocidad del viento (km/h) Dirección del viento Racha (km/h) Dirección de racha Precipitación (mm) Presión (hPa) Tendencia (hPa) Humedad (%)
2018-12-08 23:00:00 12.6 4 Norte 16 Noroeste 0 1028.1 0.8 74
2018-12-08 22:00:00 13.2 6 Norte 21 Noroeste 0 1027.9 0.9 72
2018-12-08 21:00:00 13.5 4 Norte 17 Norte 0 1027.6 0.7 69
2018-12-08 20:00:00 14.2 5 Norte 21 Noroeste 0 1027.3 0.4 66
2018-12-08 19:00:00 14.7 6 Norte 17 Nordeste 0 1027 0.1 63
2018-12-08 18:00:00 15.8 7 Norte 22 Norte 0 1026.9 -0.3 61
2018-12-08 17:00:00 17 4 Norte 21 Noroeste 0 1026.9 -0.9 59
2018-12-08 16:00:00 17.3 7 Norte 28 Norte 0 1026.9 -1.7 60
2018-12-08 15:00:00 17.1 10 Norte 24 Noroeste 0 1027.2 -2.3 62
2018-12-08 14:00:00 15.6 7 Norte 19 Noroeste 0 1027.8 -1.8 66
2018-12-08 13:00:00 13.8 6 Norte 26 Norte 0 1028.6 -0.5 73
2018-12-08 12:00:00 12.7 8 Norte 23 Norte 0 1029.5 0.8 79
2018-12-08 11:00:00 12.3 10 Noroeste 25 Noroeste 0 1029.6 1.3 82
2018-12-08 10:00:00 12.6 4 Norte 20 Norte 0 1029.1 1.1 85
2018-12-08 09:00:00 12.2 5 Norte 19 Norte 0 1028.7 0.9 88
2018-12-08 08:00:00 11.7 3 Nordeste 21 Norte 0 1028.3 0.6 88
2018-12-08 07:00:00 11.4 6 Norte 17 Noroeste 0 1028 0.2 88
2018-12-08 06:00:00 10.8 9 Norte 24 Noroeste 0 1027.8 -0.2 87
2018-12-08 05:00:00 11.5 11 Norte 32 Noroeste 0 1027.7 -0.2 84
2018-12-08 04:00:00 12 10 Norte 30 Noroeste 0 1027.8 -0.4 81
2018-12-08 03:00:00 12.3 10 Norte 28 Noroeste 0 1028 -0.2 80
2018-12-08 02:00:00 12.6 5 Norte 27 Noroeste 0 1027.9 -0.3 80
2018-12-08 01:00:00 12.7 7 Noroeste 28 Noroeste 0 1028.2 -0.5 80
2018-12-08 00:00:00 12.5 13 Norte 32 Norte 0 1028.2 -0.4 82
2018-12-07 23:00:00 11.9 7 Norte 28 Norte 0 1028.2 0.1 84
2018-12-07 22:00:00 11.5 11 Norte 37 Norte 0 1028.7 1 86
2018-12-07 21:00:00 12.2 16 Noroeste 41 Norte 0 1028.6 1.4 86
2018-12-07 20:00:00 12.8 12 Norte 31 Noroeste 0 1028.1 1.3 83
2018-12-07 19:00:00 14.7 9 Norte 19 Noroeste 0 1027.7 1.3 73
2018-12-07 18:00:00 16.4 10 Norte 21 Norte 0 1027.2 0.3 60
2018-12-07 17:00:00 18 8 Noroeste 17 Noroeste 0 1026.8 -1.1 54
2018-12-07 16:00:00 18.7 8 Noroeste 19 Noroeste 0 1026.4 -1.9 52
2018-12-07 15:00:00 18.3 8 Norte 20 Norte 0 1026.9 -2 55
2018-12-07 14:00:00 18.1 9 Norte 26 Noroeste 0 1027.9 0 56
2018-12-07 13:00:00 17.4 10 Noroeste 26 Norte 0 1028.3 0.8 59
2018-12-07 12:00:00 16.9 5 Norte 17 Noroeste 0 1028.9 1.8 64
2018-12-07 11:00:00 14.7 8 Norte 23 Noroeste 0 1027.9 1.3 73
2018-12-07 10:00:00 12.9 11 Norte 20 Norte 0 1027.5 1.4 81
2018-12-07 09:00:00 11.6 5 Norte 12 Nordeste 0 1027.1 1.3 87
2018-12-07 08:00:00 11.5 5 Norte 18 Noroeste 0 1026.6 1.1 86
2018-12-07 07:00:00 11.4 3 Noroeste 19 Noroeste 0 1026.1 0.3 85
2018-12-07 06:00:00 12.7 9 Noroeste 26 Norte 0 1025.8 0 82
2018-12-07 05:00:00 13.2 12 Norte 25 Noroeste 0 1025.5 -0.4 81
2018-12-07 04:00:00 13.3 7 Noroeste 18 Norte 0 1025.8 -0.5 81
2018-12-07 03:00:00 13.4 6 Noroeste 13 Norte 0 1025.8 -0.6 80
2018-12-07 02:00:00 13.5 6 Norte 16 Norte 0 1025.9 -0.6 79
2018-12-07 01:00:00 13.9 4 Noroeste 19 Norte 0 1026.3 0.3 77
2018-12-07 00:00:00 14.7 4 Norte 12 Norte 0 1026.4 0.4 71
2018-12-06 23:00:00 15.3 5 Norte 19 Norte 0 1026.5 0.6 67
2018-12-06 22:00:00 16.1 9 Norte 18 Norte 0 1026 0.7 65
2018-12-06 21:00:00 16.4 7 Norte 18 Norte 0 1026 1.1 63
2018-12-06 20:00:00 17.1 10 Norte 26 Norte 0 1025.9 1 60
2018-12-06 19:00:00 18 11 Noroeste 25 Norte 0 1025.3 0.4 56
2018-12-06 18:00:00 19 9 Norte 26 Noroeste 0 1024.9 -0.5 52
2018-12-06 17:00:00 20.4 10 Norte 21 Norte 0 1024.9 -1.1 49
2018-12-06 16:00:00 21.7 5 Norte 19 Norte 0 1024.9 -1.9 46
2018-12-06 15:00:00 21.2 8 Norte 20 Norte 0 1025.4 -1.8 45
2018-12-06 14:00:00 20.9 7 Norte 20 Norte 0 1026 -1.4 48
2018-12-06 13:00:00 19.2 9 Norte 21 Norte 0 1026.8 -0.1 53
2018-12-06 12:00:00 17.5 5 Norte 18 Noroeste 0 1027.2 0.8 61
2018-12-06 11:00:00 14.8 7 Noroeste 23 Norte 0 1027.4 1.4 69
2018-12-06 10:00:00 12.9 8 Norte 23 Norte 0 1026.9 1.5 75
2018-12-06 09:00:00 11.7 7 Norte 20 Noroeste 0 1026.4 1.1 81
2018-12-06 08:00:00 11.6 6 Norte 15 Norte 0 1026 0.6 81
2018-12-06 07:00:00 11.8 6 Norte 13 Nordeste 0 1025.4 -0.3 81
2018-12-06 06:00:00 11.8 4 Norte 14 Norte 0 1025.3 -0.1 82
2018-12-06 05:00:00 12.5 6 Norte 14 Norte 0 1025.4 0.1 81
2018-12-06 04:00:00 12.6 4 Norte 18 Nordeste 0 1025.7 0.1 82
2018-12-06 03:00:00 12.9 7 Norte 24 Noroeste 0 1025.4 -0.2 82
2018-12-06 02:00:00 13.2 9 Norte 19 Noroeste 0 1025.3 -0.1 82
2018-12-06 01:00:00 13 7 Norte 17 Noroeste 0 1025.6 0.4 82
2018-12-06 00:00:00 13.5 6 Norte 17 Noroeste 0 1025.6 0.7 77
2018-12-05 23:00:00 13.5 5 Norte 15 Noroeste 0 1025.4 0.8 75
2018-12-05 22:00:00 14 9 Noroeste 18 Norte 0 1025.2 0.8 73
2018-12-05 21:00:00 14 8 Norte 14 Noroeste 0 1024.9 0.8 73
2018-12-05 20:00:00 14.1 6 Noroeste 11 Norte 0 1024.6 0.8 70
2018-12-05 19:00:00 14.9 3 Oeste 7 Noroeste 0 1024.4 1 65
2018-12-05 18:00:00 18.3 3 Noroeste 13 Norte 0 1024.1 0.6 52
2018-12-05 17:00:00 20.8 5 Norte 17 Noroeste 0 1023.8 -0.1 44
2018-12-05 16:00:00 22.4 4 Norte 13 Nordeste 0 1023.4 -1.1 47
2018-12-05 15:00:00 21.5 7 Noroeste 13 Noroeste 0 1023.5 -1.5 48
2018-12-05 14:00:00 20.9 3 Norte 13 Noroeste 0 1023.9 -1 54
2018-12-05 13:00:00 18.4 4 Norte 9 Noroeste 0 1024.5 -0.2 62
2018-12-05 12:00:00 16.6 2 Norte 11 Noroeste 0 1025 1 68
2018-12-05 11:00:00 13.3 4 Noroeste 11 Norte 0 1024.9 1.8 75
2018-12-05 10:00:00 10.9 7 Norte 14 Norte 0 1024.7 2.1 83
2018-12-05 09:00:00 8.8 5 Norte 12 Norte 0.1 1024 2 88
2018-12-05 08:00:00 8.3 0 Calma 9 Norte 0 1023.1 1.1 88
2018-12-05 07:00:00 8.9 4 Norte 11 Norte 0 1022.6 0.4 88
2018-12-05 06:00:00 9 4 Norte 10 Norte 0 1022 -0.2 88
2018-12-05 05:00:00 9.4 3 Norte 12 Nordeste 0 1022 -0.2 89
2018-12-05 04:00:00 9.8 3 Norte 9 Norte 0 1022.2 -0.4 91
2018-12-05 03:00:00 9.9 3 Norte 9 Norte 0 1022.2 -0.2 91
2018-12-05 02:00:00 10.1 3 Norte 8 Noroeste 0 1022.2 -0.1 93
2018-12-05 01:00:00 10.9 0 Calma 6 Nordeste 0 1022.6 0.6 93
2018-12-05 00:00:00 11.7 0 Calma 7 Nordeste 0 1022.4 0.6 93
2018-12-04 23:00:00 12.1 0 Calma 6 Este 0 1022.3 0.8 93
2018-12-04 22:00:00 12.9 2 Nordeste 6 Este 0 1022 0.9 92
2018-12-04 21:00:00 13.8 0 Calma 5 Noroeste 0 1021.8 0.9 91
2018-12-04 20:00:00 14 0 Calma 5 Norte 0 1021.5 0.8 90
2018-12-04 19:00:00 14.7 0 Calma 8 Este 0 1021.1 0.2 85
2018-12-04 18:00:00 15.1 4 Sudeste 10 Este 0 1020.9 0 85
2018-12-04 17:00:00 16.1 5 Este 12 Sudeste 0 1020.7 -0.6 79
2018-12-04 16:00:00 16.9 5 Este 16 Este 0 1020.9 -0.9 76
2018-12-04 15:00:00 16.3 9 Sudeste 16 Sudeste 0 1020.9 -1.6 74
2018-12-04 14:00:00 16.9 7 Sudeste 14 Sudeste 0 1021.3 -1.3 68
2018-12-04 13:00:00 17.3 7 Este 12 Este 0 1021.8 -0.2 59
2018-12-04 12:00:00 16.6 7 Este 13 Este 0 1022.5 1.1 58
2018-12-04 11:00:00 13.7 3 Norte 9 Norte 0 1022.6 1.9 69
2018-12-04 10:00:00 11.4 3 Norte 10 Norte 0 1022 1.8 77
2018-12-04 09:00:00 8.7 4 Norte 8 Norte 0 1021.4 1.3 91
2018-12-04 08:00:00 7.1 2 Norte 4 Norte 0 1020.7 0.6 90
2018-12-04 07:00:00 7.6 0 Calma 5 Norte 0 1020.2 0.1 88
2018-12-04 06:00:00 8.9 0 Calma 11 Noroeste 0 1020.1 0 87
2018-12-04 05:00:00 9 5 Norte 11 Norte 0 1020.1 -0.5 88
2018-12-04 04:00:00 9.9 6 Norte 12 Norte 0 1020.1 -1 90
2018-12-04 03:00:00 9.2 4 Norte 7 Norte 0 1020.1 -1.3 90
2018-12-04 02:00:00 9.6 0 Calma 6 Norte 0 1020.6 -0.8 88
2018-12-04 01:00:00 10.2 0 Calma 6 Nordeste 0 1021.1 -0.4 85
2018-12-04 00:00:00 11.4 0 Calma 9 Norte 0 1021.4 -0.2 82
2018-12-03 23:00:00 12.1 0 Calma 11 Noroeste 0 1021.4 0 80
2018-12-03 22:00:00 12.6 6 Norte 11 Norte 0 1021.5 0.4 79
2018-12-03 21:00:00 11.7 4 Norte 8 Nordeste 0 1021.6 0.6 82
2018-12-03 20:00:00 12.4 2 Noroeste 8 Noroeste 0 1021.4 0.4 78
2018-12-03 19:00:00 13.9 4 Noroeste 6 Noroeste 0 1021.1 0.2 73
2018-12-03 18:00:00 16.1 0 Calma 6 Oeste 0 1021 -0.1 63
2018-12-03 17:00:00 17.9 3 Oeste 9 Sur 0 1021 -1.1 56
2018-12-03 16:00:00 18.8 4 Sudoeste 9 Noroeste 0 1020.9 -1.7 52
2018-12-03 15:00:00 20 2 Este 6 Este 0 1021.1 -1.9 47
2018-12-03 14:00:00 18.3 3 Norte 8 Norte 0 1022.1 -1.2 50
2018-12-03 13:00:00 17.6 3 Noroeste 8 Oeste 0 1022.6 -0.2 57
2018-12-03 12:00:00 15.3 3 Nordeste 9 Norte 0 1023 0.5 63
2018-12-03 11:00:00 13.3 5 Norte 15 Noroeste 0 1023.3 0.8 73
2018-12-03 10:00:00 11.8 5 Norte 14 Norte 0 1022.8 0.5 77
2018-12-03 09:00:00 10.2 5 Norte 12 Noroeste 0 1022.5 0.1 85
2018-12-03 08:00:00 10.1 6 Norte 17 Norte 0 1022.5 -0.1 85
2018-12-03 07:00:00 10.1 6 Norte 15 Noroeste 0 1022.3 -0.3 84
2018-12-03 06:00:00 10 5 Norte 12 Noroeste 0 1022.4 -0.5 85
2018-12-03 05:00:00 10 3 Norte 12 Noroeste 0 1022.6 -0.7 86
2018-12-03 04:00:00 9.9 4 Norte 10 Norte 0 1022.6 -1.2 86
2018-12-03 03:00:00 10.6 7 Noroeste 15 Norte 0 1022.9 -0.9 85
2018-12-03 02:00:00 11.1 5 Norte 18 Noroeste 0 1023.3 -0.8 82
2018-12-03 01:00:00 11.3 7 Norte 20 Noroeste 0 1023.8 -0.3 82
2018-12-03 00:00:00 11.6 9 Noroeste 17 Noroeste 0 1023.8 -0.2 82
2018-12-02 23:00:00 11.2 6 Noroeste 12 Noroeste 0 1024.1 0.3 85
2018-12-02 22:00:00 10.5 4 Noroeste 8 Norte 0 1024.1 0.7 86
2018-12-02 21:00:00 11.4 2 Noroeste 8 Noroeste 0 1024 0.7 84
2018-12-02 20:00:00 12.6 3 Noroeste 6 Noroeste 0 1023.8 0.8 82
2018-12-02 19:00:00 13.2 4 Oeste 6 Oeste 0 1023.4 0.6 75
2018-12-02 18:00:00 15.1 2 Sudoeste 9 Sudoeste 0 1023.3 0.4 67
2018-12-02 17:00:00 16.5 5 Sudoeste 9 Sudoeste 0 1023 -0.8 58
2018-12-02 16:00:00 16.8 5 Sudoeste 11 Sur 0 1022.8 -1.9 55
2018-12-02 15:00:00 17.7 3 Sur 11 Sur 0 1022.9 -2.5 52
2018-12-02 14:00:00 17.2 3 Sudeste 11 Este 0 1023.8 -1.5 54
2018-12-02 13:00:00 16.9 0 Calma 8 Este 0 1024.7 -0.2 56
2018-12-02 12:00:00 15.9 4 Este 11 Este 0 1025.4 1 60
2018-12-02 11:00:00 13.8 4 Nordeste 12 Nordeste 0 1025.3 1 68
2018-12-02 10:00:00 11.3 5 Norte 9 Norte 0 1024.9 1 76
2018-12-02 09:00:00 9.2 2 Norte 9 Norte 0 1024.4 0.5 84
2018-12-02 08:00:00 8.8 3 Norte 10 Norte 0 1024.3 0.2 82
2018-12-02 07:00:00 9.4 3 Norte 10 Noroeste 0 1023.9 -0.2 79
2018-12-02 06:00:00 9.8 4 Norte 13 Norte 0 1023.9 -0.2 79
2018-12-02 05:00:00 9.6 5 Norte 12 Norte 0 1024.1 -0.1 80
2018-12-02 04:00:00 10 4 Norte 15 Norte 0 1024.1 -0.2 78
2018-12-02 03:00:00 10.7 4 Norte 15 Noroeste 0 1024.1 -0.4 76
2018-12-02 02:00:00 10.5 4 Norte 14 Noroeste 0 1024.2 -0.7 79
2018-12-02 01:00:00 10.7 4 Norte 14 Noroeste 0 1024.3 -0.3 77
2018-12-02 00:00:00 9.7 0 Calma 10 Noroeste 0 1024.5 0.3 79
2018-12-01 23:00:00 10.4 3 Noroeste 9 Norte 0 1024.9 1.2 79
2018-12-01 22:00:00 10.7 0 Calma 8 Norte 0 1024.6 0.9 78
2018-12-01 21:00:00 11.7 4 Noroeste 8 Noroeste 0 1024.2 0.6 78
2018-12-01 20:00:00 12.5 3 Noroeste 11 Oeste 0 1023.7 0.1 72
2018-12-01 19:00:00 13.3 4 Oeste 7 Oeste 0 1023.7 0.4 66
2018-12-01 18:00:00 14.7 2 Oeste 9 Sur 0 1023.6 -0.1 60
2018-12-01 17:00:00 16.4 4 Sudoeste 9 Sur 0 1023.6 -0.3 50
2018-12-01 16:00:00 17.5 5 Sur 14 Sur 0 1023.3 -1.2 48
2018-12-01 15:00:00 17.4 5 Sudoeste 14 Sur 0 1023.7 -1.7 48
2018-12-01 14:00:00 17.5 0 Calma 11 Noroeste 0 1023.9 -1.8 46
2018-12-01 13:00:00 16.3 2 Norte 9 Noroeste 0 1024.5 -0.7 50
2018-12-01 12:00:00 14.6 3 Norte 9 Noroeste 0 1025.4 0.7 59
2018-12-01 11:00:00 12.5 5 Norte 14 Norte 0 1025.7 1.5 69
2018-12-01 10:00:00 10.4 6 Norte 17 Noroeste 0 1025.2 1.4 79
2018-12-01 09:00:00 9 5 Norte 15 Norte 0 1024.7 1.7 84
2018-12-01 08:00:00 8.9 6 Norte 14 Norte 0 1024.2 1.3 85
2018-12-01 07:00:00 8.7 2 Norte 12 Norte 0 1023.8 0.7 85
2018-12-01 06:00:00 8.9 4 Norte 14 Nordeste 0 1023 -0.4 83
2018-12-01 05:00:00 9.4 5 Norte 15 Norte 0 1022.9 -0.6 82
2018-12-01 04:00:00 9.5 3 Norte 11 Norte 0 1023.1 -1.2 82
2018-12-01 03:00:00 9.8 4 Norte 16 Norte 0 1023.4 -1.1 84
2018-12-01 02:00:00 9.4 6 Norte 10 Norte 0 1023.5 -0.7 85
2018-12-01 01:00:00 10.1 0 Calma 13 Norte 0 1024.3 0.3 79
2018-12-01 00:00:00 10.3 4 Norte 12 Noroeste 0 1024.5 0.9 80
2018-11-30 23:00:00 10.5 0 Calma 12 Norte 0 1024.2 1.1 81
2018-11-30 22:00:00 9.5 0 Calma 7 Noroeste 0 1024 1.3 79
2018-11-30 21:00:00 11.6 6 Norte 15 Noroeste 0 1023.6 1.1 73
2018-11-30 20:00:00 11.8 6 Noroeste 11 Noroeste 0 1023.1 1.2 70
2018-11-30 19:00:00 12.7 5 Noroeste 10 Noroeste 0 1022.7 0.8 61
2018-11-30 18:00:00 14.6 4 Norte 17 Noroeste 0 1022.5 0.5 53
2018-11-30 17:00:00 16 8 Norte 23 Noroeste 0 1021.9 -0.5 48
2018-11-30 16:00:00 16.5 9 Noroeste 22 Norte 0 1021.9 -1.1 51
2018-11-30 15:00:00 15.8 10 Noroeste 18 Noroeste 0 1022 -1.5 54
2018-11-30 14:00:00 15.5 7 Noroeste 22 Noroeste 0 1022.4 -0.7 58
2018-11-30 13:00:00 14.2 9 Noroeste 21 Norte 0 1023 0.5 63
2018-11-30 12:00:00 13.6 11 Norte 25 Noroeste 0 1023.5 1.8 69
2018-11-30 11:00:00 12.5 9 Norte 23 Norte 0 1023.1 2.1 73
2018-11-30 10:00:00 11.4 10 Norte 24 Norte 0 1022.5 2.4 79
2018-11-30 09:00:00 10.4 9 Norte 23 Norte 0 1021.7 2.1 85
2018-11-30 08:00:00 10.6 6 Noroeste 18 Noroeste 0 1021 1.6 85
2018-11-30 07:00:00 11.1 9 Norte 22 Noroeste 0 1020.1 1 84
2018-11-30 06:00:00 11.8 9 Norte 25 Noroeste 0 1019.6 0.8 84
2018-11-30 05:00:00 12.4 8 Norte 23 Noroeste 0 1019.4 0.4 85
2018-11-30 04:00:00 13.9 11 Norte 26 Norte 0 1019.1 -0.1 84
2018-11-30 03:00:00 15.1 6 Norte 16 Noroeste 0.1 1018.8 -0.5 90
2018-11-30 02:00:00 15.6 6 Oeste 21 Oeste 0.9 1019 -0.4 92
2018-11-30 01:00:00 16 10 Sudoeste 25 Sudoeste 1 1019.2 -0.2 93
2018-11-30 00:00:00 15.6 11 Sudoeste 22 Oeste 0.7 1019.3 0.2 93
2018-11-29 23:00:00 15.7 14 Sudoeste 23 Sudoeste 0.1 1019.4 0.2 88
2018-11-29 22:00:00 16.3 12 Sudoeste 19 Sudoeste 0 1019.4 -0.2 81
2018-11-29 21:00:00 16 10 Sudoeste 19 Sur 0 1019.1 -0.6 80
2018-11-29 20:00:00 15.2 8 Sur 13 Sur 0 1019.2 -0.2 79
2018-11-29 19:00:00 14.9 4 Sur 8 Este 0 1019.6 0 80
2018-11-29 18:00:00 15 0 Calma 9 Sudeste 0 1019.7 0.4 77
2018-11-29 17:00:00 15.1 4 Sudeste 10 Sur 0 1019.4 -0.5 76
2018-11-29 16:00:00 15.3 6 Sudeste 13 Sudeste 0 1019.6 -1.5 72
2018-11-29 15:00:00 15.2 7 Sudeste 14 Este 0 1019.3 -2.9 67
2018-11-29 14:00:00 16.9 5 Sudeste 11 Sudeste 0 1019.9 -2.1 65
2018-11-29 13:00:00 13.8 4 Nordeste 11 Norte 0 1021.1 -0.3 72
2018-11-29 12:00:00 12.5 4 Noroeste 7 Noroeste 0 1022.2 1.3 74
2018-11-29 11:00:00 11 0 Calma 8 Nordeste 0 1022 0.9 81
2018-11-29 10:00:00 8.6 3 Norte 6 Noroeste 0 1021.4 1 93
2018-11-29 09:00:00 6.3 4 Norte 7 Norte 0 1020.9 0 94
2018-11-29 08:00:00 5.8 3 Norte 6 Noroeste 0 1021.1 0.1 93
2018-11-29 07:00:00 6.7 0 Calma 6 Norte 0 1020.4 -0.3 93
2018-11-29 06:00:00 7.8 2 Nordeste 10 Norte 0 1020.9 0.4 93
2018-11-29 05:00:00 5.9 3 Noroeste 8 Norte 0 1021 0.3 94
2018-11-29 04:00:00 6 3 Noroeste 5 Norte 0 1020.7 -0.5 93
2018-11-29 03:00:00 6.1 0 Calma 5 Norte 0 1020.5 -0.9 93
2018-11-29 02:00:00 6.4 0 Calma 6 Norte 0 1020.7 -0.7 92
2018-11-29 01:00:00 6.8 2 Norte 9 Noroeste 0 1021.2 -0.6 93
2018-11-29 00:00:00 7.2 3 Norte 6 Noroeste 0 1021.4 0 92
2018-11-28 23:00:00 7.7 0 Calma 6 Noroeste 0 1021.4 -0.1 91
2018-11-28 22:00:00 8.8 5 Noroeste 8 Noroeste 0 1021.8 0.1 90
2018-11-28 21:00:00 8.9 0 Calma 4 Norte 0 1021.4 -0.1 87
2018-11-28 14:00:00 17 7 Sudeste 12 Sudeste 0 1022.6 -1.4 51
2018-11-28 13:00:00 15.5 5 Este 17 Este 0 1023.1 -1 55
2018-11-28 12:00:00 14.9 6 Este 11 Este 0 1023.7 -0.1 58
2018-11-28 11:00:00 12.1 0 Calma 6 Norte 0 1024 0.7 74
2018-11-28 10:00:00 9.3 4 Noroeste 6 Noroeste 0 1024.1 1.1 83
2018-11-28 09:00:00 6.3 3 Norte 6 Norte 0 1023.8 0.9 90
2018-11-28 08:00:00 6.6 0 Calma 11 Nordeste 0 1023.3 0.7 89
2018-11-28 07:00:00 7.1 5 Norte 10 Norte 0 1023 0.6 89
2018-11-28 06:00:00 7.1 4 Norte 11 Norte 0 1022.9 0.6 90
2018-11-28 05:00:00 6.7 5 Norte 10 Norte 0 1022.6 0.1 90
2018-11-28 04:00:00 7.2 6 Norte 10 Noroeste 0 1022.4 -0.2 91
2018-11-28 03:00:00 6.5 2 Norte 6 Noroeste 0 1022.3 -0.5 91
2018-11-28 02:00:00 6.6 4 Norte 6 Norte 0 1022.5 -0.4 91
2018-11-28 01:00:00 6.7 0 Calma 3 Norte 0 1022.6 -0.1 88
2018-11-28 00:00:00 8.1 0 Calma 9 Norte 0 1022.8 0.1 89
2018-11-27 23:00:00 7.7 0 Calma 3 Noroeste 0 1022.9 0.4 86
2018-11-27 22:00:00 8.7 0 Calma 5 Noroeste 0 1022.7 0 85
2018-11-27 21:00:00 9.6 3 Noroeste 6 Noroeste 0 1022.7 0.4 84
2018-11-27 20:00:00 10.1 0 Calma 4 Oeste 0 1022.5 0.2 76
2018-11-27 19:00:00 11.7 2 Oeste 4 Oeste 0 1022.7 0.6 67
2018-11-27 18:00:00 14.2 3 Sudoeste 8 Sudoeste 0 1022.3 0 58
2018-11-27 17:00:00 15.8 5 Sudoeste 11 Sudoeste 0 1022.3 -0.5 51
2018-11-27 16:00:00 16.6 7 Sur 14 Sudoeste 0 1022.1 -1.7 48
2018-11-27 15:00:00 17.4 7 Sudoeste 16 Sudoeste 0 1022.3 -1.7 50
2018-11-27 14:00:00 17.2 4 Sudeste 10 Sur 0 1022.8 -1.1 51
2018-11-27 13:00:00 16.6 0 Calma 9 Este 0 1023.8 0.2 53
2018-11-27 12:00:00 15.1 3 Este 10 Este 0 1024 1 56
2018-11-27 11:00:00 12.5 3 Nordeste 8 Noroeste 0 1023.9 1.1 66
2018-11-27 10:00:00 10.2 3 Norte 10 Noroeste 0 1023.6 0.5 79
2018-11-27 09:00:00 7.9 0 Calma 10 Norte 0 1023 0 87
2018-11-27 08:00:00 7.9 5 Norte 10 Norte 0 1022.8 -0.3 85
2018-11-27 07:00:00 8.6 3 Norte 14 Norte 0 1023.1 -0.5 82
2018-11-27 06:00:00 8.9 6 Norte 14 Norte 0 1023 -0.7 82
2018-11-27 05:00:00 8.6 3 Norte 9 Norte 0 1023.1 -0.7 82
2018-11-27 04:00:00 8.9 0 Calma 10 Norte 0 1023.6 -0.2 82
2018-11-27 03:00:00 8.6 3 Noroeste 13 Noroeste 0 1023.7 0 84
2018-11-27 02:00:00 8.4 5 Noroeste 12 Norte 0 1023.8 0.1 85
2018-11-27 01:00:00 7.8 3 Norte 10 Noroeste 0 1023.8 0.4 88
2018-11-27 00:00:00 7.9 0 Calma 5 Oeste 0 1023.7 0.8 86
2018-11-26 23:00:00 8.6 0 Calma 8 Noroeste 0 1023.7 1 82
2018-11-26 22:00:00 10.2 4 Noroeste 10 Noroeste 0 1023.4 1.5 79
2018-11-26 21:00:00 10.4 3 Noroeste 6 Oeste 0 1022.9 1.2 79
2018-11-26 20:00:00 11.7 3 Noroeste 9 Oeste 0 1022.7 1.6 72
2018-11-26 19:00:00 12.6 0 Calma 7 Noroeste 0 1021.9 1.4 65
2018-11-26 18:00:00 14.2 2 Noroeste 15 Noroeste 0 1021.7 1 55
2018-11-26 17:00:00 15.6 7 Noroeste 19 Noroeste 0 1021.1 0.2 49
2018-11-26 16:00:00 16.5 8 Noroeste 25 Norte 0 1020.5 -0.9 47
2018-11-26 15:00:00 16.7 12 Noroeste 31 Norte 0 1020.7 -1.2 47
2018-11-26 14:00:00 16.9 10 Noroeste 32 Noroeste 0 1020.9 -1 48
2018-11-26 13:00:00 16 9 Noroeste 31 Norte 0 1021.4 0.3 49
2018-11-26 12:00:00 15.5 10 Noroeste 29 Noroeste 0.1 1021.9 1.6 52
2018-11-26 11:00:00 14.5 8 Noroeste 19 Noroeste 0 1021.9 2.4 58
2018-11-26 10:00:00 12.4 6 Oeste 14 Noroeste 0 1021.1 2.2 64
2018-11-26 09:00:00 10.7 4 Oeste 10 Oeste 0 1020.3 1.8 70
2018-11-26 08:00:00 11 6 Oeste 14 Oeste 0 1019.5 1.4 68
2018-11-26 07:00:00 11.4 7 Oeste 19 Noroeste 0 1018.9 1.1 65
2018-11-26 06:00:00 12.1 6 Noroeste 20 Noroeste 0 1018.5 1.3 62
2018-11-26 05:00:00 11.8 6 Noroeste 17 Oeste 0 1018.1 1.4 66
2018-11-26 04:00:00 11.9 4 Noroeste 19 Noroeste 0 1017.8 1.7 63
2018-11-26 03:00:00 12.4 6 Noroeste 21 Noroeste 0 1017.2 1.9 60
2018-11-26 02:00:00 13 9 Noroeste 27 Noroeste 0 1016.7 2.3 63
2018-11-26 01:00:00 13.9 9 Noroeste 25 Noroeste 0 1016.1 3.1 70
2018-11-26 00:00:00 15 10 Noroeste 33 Noroeste 0 1015.3 3.3 72
2018-11-25 23:00:00 15.9 10 Noroeste 32 Noroeste 0 1014.4 2.3 76
2018-11-25 22:00:00 16.9 10 Oeste 43 Oeste 0.1 1013 0.2 93
2018-11-25 21:00:00 16.7 22 Oeste 44 Oeste 0.1 1012 -1.1 93
2018-11-25 20:00:00 16.3 17 Sudoeste 35 Sudoeste 1.2 1012.1 -1 93
2018-11-25 19:00:00 15.5 16 Sudoeste 34 Oeste 0.2 1012.8 -0.2 91
2018-11-25 18:00:00 15.5 15 Oeste 27 Oeste 0.6 1013.1 -0.1 88
2018-11-25 17:00:00 16.4 14 Sudoeste 26 Sudoeste 0.1 1013.1 -0.5 79
2018-11-25 16:00:00 17.2 14 Sudoeste 27 Sudoeste 0 1013 -1.3 70
2018-11-25 15:00:00 18 15 Oeste 28 Sudoeste 0 1013.2 -1.5 73
2018-11-25 14:00:00 18.7 18 Sudoeste 28 Sudoeste 0 1013.6 -1 70
2018-11-25 13:00:00 18.6 13 Oeste 24 Sudoeste 0 1014.3 0.2 76
2018-11-25 12:00:00 18.5 14 Sudoeste 25 Oeste 0 1014.7 1.2 72
2018-11-25 11:00:00 18.2 13 Sudoeste 22 Oeste 0 1014.6 1.6 80
2018-11-25 10:00:00 17 8 Oeste 19 Oeste 0 1014.1 1 85
2018-11-25 09:00:00 14.5 6 Oeste 15 Oeste 0 1013.5 0.9 92
2018-11-25 08:00:00 14.2 4 Sudoeste 7 Sudoeste 0 1013 0.1 93
2018-11-25 07:00:00 13.7 2 Este 5 Oeste 0 1013.1 0.2 91
2018-11-25 06:00:00 13.8 3 Sudoeste 8 Oeste 0 1012.6 -0.3 91
2018-11-25 05:00:00 14.9 3 Noroeste 16 Oeste 0 1012.9 -0.2 91
2018-11-25 04:00:00 15.1 5 Oeste 15 Oeste 0 1012.9 -0.3 91
2018-11-25 03:00:00 14.8 7 Oeste 21 Oeste 0 1012.9 -0.3 91
2018-11-25 02:00:00 15.6 13 Oeste 24 Oeste 0 1013.1 -1 91
2018-11-25 01:00:00 15.3 13 Sudoeste 44 Sudoeste 0.3 1013.2 -0.7 91
2018-11-25 00:00:00 15.5 27 Sudoeste 51 Sur 3.4 1013.2 -0.9 91
2018-11-24 23:00:00 16 24 Sudoeste 46 Sudoeste 0 1014.1 -0.2 79
2018-11-24 22:00:00 16.6 22 Sudoeste 35 Sudoeste 0 1013.9 -0.5 74
2018-11-24 21:00:00 15.7 16 Sudoeste 44 Sudoeste 0.1 1014.1 -0.4 81
2018-11-24 20:00:00 16.3 16 Sudoeste 31 Sudoeste 0 1014.3 -0.5 75
2018-11-24 19:00:00 15.8 16 Sudoeste 43 Sudoeste 0.5 1014.4 -0.6 79
2018-11-24 18:00:00 16.3 17 Sur 29 Sudoeste 0 1014.5 -0.7 72
2018-11-24 17:00:00 16.9 15 Sudoeste 33 Sudoeste 0 1014.8 -1.1 67
2018-11-24 16:00:00 16.1 19 Sudoeste 41 Sudoeste 0 1015 -1.6 70
2018-11-24 15:00:00 16.2 11 Sur 40 Sudoeste 1.5 1015.2 -2.2 82
2018-11-24 14:00:00 16.6 14 Sur 28 Sur 0 1015.9 -1.9 63
2018-11-24 13:00:00 17.1 12 Sur 20 Sur 0 1016.6 -1 64
2018-11-24 12:00:00 13.3 9 Este 18 Este 0 1017.4 0.1 83
2018-11-24 11:00:00 12.4 10 Este 16 Este 0 1017.8 0.9 82
2018-11-24 10:00:00 9.8 5 Nordeste 10 Este 0 1017.6 1.1 90
2018-11-24 09:00:00 8.1 0 Calma 7 Norte 0 1017.3 1.2 94
2018-11-24 08:00:00 7.6 3 Norte 6 Norte 0 1016.9 0.6 94
2018-11-24 07:00:00 6.8 0 Calma 4 Este 0 1016.5 -0.3 92
2018-11-24 06:00:00 7.3 0 Calma 4 Nordeste 0 1016.1 -0.9 92
2018-11-24 05:00:00 7.3 0 Calma 6 Norte 0 1016.3 -1.1 92
2018-11-24 04:00:00 7.2 0 Calma 6 Noroeste 0 1016.8 -1 91
2018-11-24 03:00:00 8.2 2 Noroeste 11 Norte 0 1017 -0.7 92
2018-11-24 02:00:00 8.9 2 Norte 11 Norte 0 1017.4 0 91
2018-11-24 01:00:00 8.8 4 Norte 9 Norte 0 1017.8 0.6 88
2018-11-24 00:00:00 9.3 0 Calma 8 Noroeste 0 1017.7 0.9 86
2018-11-23 23:00:00 10.5 3 Norte 9 Norte 0 1017.4 0.9 88
2018-11-23 22:00:00 10.7 0 Calma 6 Norte 0 1017.2 1.1 85
2018-11-23 21:00:00 11.9 4 Noroeste 9 Noroeste 0 1016.8 1 82
2018-11-23 20:00:00 12.9 3 Noroeste 14 Oeste 0 1016.5 0.9 73
2018-11-23 19:00:00 14 8 Oeste 17 Sudoeste 0 1016.1 0.7 68
2018-11-23 18:00:00 15.3 8 Sudoeste 14 Sudoeste 0 1015.8 0.5 62
2018-11-23 17:00:00 15.7 9 Sudoeste 15 Sudoeste 0 1015.6 -0.1 58
2018-11-23 16:00:00 17 9 Sudoeste 17 Sudoeste 0 1015.4 -0.9 54
2018-11-23 15:00:00 17.2 9 Sudoeste 15 Sur 0 1015.3 -1.7 54
2018-11-23 14:00:00 17.7 8 Sudoeste 12 Sudoeste 0 1015.7 -1.2 56
2018-11-23 13:00:00 17.6 2 Este 9 Oeste 0 1016.3 -0.4 57
2018-11-23 12:00:00 15.5 3 Noroeste 10 Oeste 0 1017 0.9 68
2018-11-23 11:00:00 13.8 0 Calma 9 Noroeste 0 1016.9 1.5 81
2018-11-23 10:00:00 11.5 5 Noroeste 8 Noroeste 0 1016.7 2 92
2018-11-23 09:00:00 8.9 3 Norte 6 Norte 0 1016.1 1.9 93
2018-11-23 08:00:00 8.7 0 Calma 5 Norte 0 1015.4 1.3 93
2018-11-23 07:00:00 9.7 3 Noroeste 6 Norte 0 1014.7 0.8 93
2018-11-23 06:00:00 10.8 0 Calma 6 Noroeste 0 1014.2 0.2 93
2018-11-23 05:00:00 11 0 Calma 4 Norte 0 1014.1 0.1 93
2018-11-23 04:00:00 11.4 2 Este 8 Este 0.4 1013.9 0 92
2018-11-23 03:00:00 11.4 0 Calma 13 Noroeste 2.4 1014 0.4 92
2018-11-23 02:00:00 11.6 6 Noroeste 12 Norte 1.5 1014 0.6 91
2018-11-23 01:00:00 11.2 2 Norte 7 Noroeste 0 1013.9 0.2 90
2018-11-23 00:00:00 11.3 0 Calma 7 Este 0 1013.6 0.2 90
2018-11-22 23:00:00 11.6 4 Nordeste 6 Nordeste 0 1013.4 0.2 89
2018-11-22 22:00:00 11.9 0 Calma 10 Noroeste 0 1013.7 0.7 89
2018-11-22 21:00:00 12.3 2 Noroeste 11 Norte 0 1013.4 0.3 89
2018-11-22 20:00:00 12.4 3 Este 8 Este 0.1 1013.2 0.2 88
2018-11-22 19:00:00 12.9 3 Este 23 Sudeste 0.3 1013 -0.1 82
2018-11-22 18:00:00 12.5 6 Sudeste 20 Sudeste 0.1 1013.1 -0.3 84
2018-11-22 17:00:00 12.7 8 Este 19 Sudeste 0.6 1013 -0.6 88
2018-11-22 16:00:00 12.7 6 Sudeste 11 Este 1.4 1013.1 -0.8 90
2018-11-22 15:00:00 12.9 0 Calma 10 Sur 3.9 1013.4 -1 89
2018-11-22 14:00:00 13.2 5 Sudeste 13 Sudeste 1.3 1013.6 -0.6 88
2018-11-22 13:00:00 13.3 0 Calma 14 Este 1.3 1013.9 -0.1 88
2018-11-22 12:00:00 13.5 6 Sudeste 15 Este 1.7 1014.4 0.8 89
2018-11-22 11:00:00 13.6 8 Este 15 Este 0 1014.2 0.8 90
2018-11-22 10:00:00 12.5 5 Nordeste 10 Nordeste 0.2 1014 0.7 91
2018-11-22 09:00:00 11.9 5 Nordeste 9 Nordeste 0 1013.6 0.2 89
2018-11-22 08:00:00 11.5 4 Nordeste 13 Este 0 1013.4 -0.3 89
2018-11-22 07:00:00 11.5 6 Este 12 Este 0 1013.3 -0.8 89
2018-11-22 06:00:00 11.6 5 Este 9 Este 0 1013.4 -0.8 89
2018-11-22 05:00:00 11.8 3 Nordeste 8 Nordeste 0 1013.7 -0.8 89
2018-11-22 04:00:00 11.3 0 Calma 4 Nordeste 0 1014.1 -0.8 89
2018-11-22 03:00:00 11.3 2 Norte 4 Nordeste 0 1014.2 -0.6 88
2018-11-22 02:00:00 11.5 0 Calma 4 Nordeste 0 1014.5 0 87
2018-11-22 01:00:00 11.6 0 Calma 3 Norte 0 1014.9 0.3 87
2018-11-22 00:00:00 11.6 0 Calma -- -- 0 1014.8 0.3 86
2018-11-21 23:00:00 11.6 0 Calma 4 Noroeste 0 1014.5 0.1 84
2018-11-21 22:00:00 11.9 0 Calma 5 Noroeste 0 1014.6 0.8 81
2018-11-21 21:00:00 12.9 3 Noroeste 9 Oeste 0 1014.5 1.4 73
2018-11-21 20:00:00 14 6 Oeste 18 Oeste 0 1014.4 1.6 67
2018-11-21 19:00:00 14.3 10 Oeste 22 Oeste 0 1013.8 1.5 64
2018-11-21 18:00:00 15.3 12 Oeste 26 Sudoeste 0 1013.1 0.9 62
2018-11-21 17:00:00 16.8 17 Sudoeste 32 Sudoeste 0 1012.8 0.2 57
2018-11-21 16:00:00 18 19 Sudoeste 32 Sudoeste 0 1012.3 -0.3 53
2018-11-21 15:00:00 18.6 16 Sudoeste 28 Sudoeste 0 1012.2 -0.8 52
2018-11-21 14:00:00 19.6 15 Sudoeste 26 Oeste 0 1012.6 -0.1 51
2018-11-21 13:00:00 19.3 12 Sudoeste 21 Oeste 0 1012.6 0.6 52
2018-11-21 12:00:00 18.5 8 Sudoeste 15 Oeste 0 1013 1.6 57
2018-11-21 11:00:00 17.2 5 Sudoeste 10 Sur 0 1012.7 2 67
2018-11-21 10:00:00 13.3 3 Norte 7 Noroeste 0 1012 1.6 86
2018-11-21 09:00:00 11.5 0 Calma 8 Noroeste 0 1011.4 1 92
2018-11-21 08:00:00 10.7 0 Calma 4 Noroeste 0 1010.7 0.6 92
2018-11-21 07:00:00 11.2 0 Calma 5 Nordeste 0 1010.4 0.2 92
2018-11-21 06:00:00 11.1 0 Calma 6 Norte 0 1010.4 0.2 91
2018-11-21 05:00:00 11.3 0 Calma 6 Norte 0 1010.1 -0.2 91
2018-11-21 04:00:00 11.6 3 Oeste 6 Oeste 0 1010.2 -0.3 89
2018-11-21 03:00:00 12.5 4 Noroeste 11 Oeste 0 1010.2 -0.3 89
2018-11-21 02:00:00 12.7 6 Oeste 11 Oeste 0 1010.3 -0.1 89
2018-11-21 01:00:00 12.3 5 Oeste 10 Oeste 0 1010.5 0.8 89
2018-11-21 00:00:00 12.1 6 Oeste 9 Sudoeste 0 1010.5 1.2 89
2018-11-20 23:00:00 12.4 4 Oeste 13 Oeste 0 1010.4 1.5 89
2018-11-20 22:00:00 12.2 7 Sudoeste 12 Sudoeste 0 1009.7 1.3 89
2018-11-20 21:00:00 12.6 4 Sudoeste 10 Oeste 0 1009.3 1.5 86
2018-11-20 20:00:00 13.2 6 Oeste 17 Oeste 0 1008.9 1.7 81
2018-11-20 19:00:00 14.4 8 Oeste 16 Oeste 0 1008.4 1.1 79
2018-11-20 18:00:00 15 8 Oeste 21 Oeste 0 1007.8 0.7 76
2018-11-20 17:00:00 16 14 Oeste 24 Sudoeste 0 1007.2 0.5 73
2018-11-20 16:00:00 15.3 14 Oeste 32 Oeste 0.2 1007.3 0.3 81
2018-11-20 15:00:00 14.8 14 Oeste 24 Oeste 0.5 1007.1 -0.4 78
2018-11-20 14:00:00 17.8 16 Sudoeste 28 Oeste 0 1006.7 -0.2 60
2018-11-20 13:00:00 18.4 14 Oeste 29 Oeste 0 1007 1 57
2018-11-20 12:00:00 16.2 9 Oeste 22 Oeste 0 1007.5 2.6 59
2018-11-20 11:00:00 16.4 9 Noroeste 20 Noroeste 0 1006.9 3 55
2018-11-20 10:00:00 14.5 6 Noroeste 14 Oeste 0 1006 3.1 76
2018-11-20 09:00:00 12.7 9 Noroeste 18 Oeste 0 1004.9 3 80
2018-11-20 08:00:00 12 6 Noroeste 24 Noroeste 0 1003.9 3.1 87
2018-11-20 07:00:00 12.6 10 Noroeste 28 Noroeste 0 1002.9 2.2 86
2018-11-20 06:00:00 12.9 10 Noroeste 27 Oeste 0.1 1001.9 1 90
2018-11-20 05:00:00 13.5 0 Calma 11 Noroeste 0 1000.8 -0.4 92
2018-11-20 04:00:00 13.1 2 Norte 5 Sur 0 1000.7 -1.5 90
2018-11-20 03:00:00 14.6 4 Sur 19 Sudeste 0.6 1000.9 -1.9 90
2018-11-20 02:00:00 14.7 12 Sur 23 Sur 0.3 1001.2 -1.8 87
2018-11-20 01:00:00 14.7 13 Sur 40 Sudoeste 2.1 1002.2 -1.1 91
2018-11-20 00:00:00 14.1 14 Sudoeste 24 Sudoeste 8.5 1002.8 -0.4 91
2018-11-19 23:00:00 13.8 4 Este 16 Sudoeste 2.3 1003 0 88
2018-11-19 22:00:00 14.4 0 Calma 3 Sudeste 0 1003.3 0.1 86
2018-11-19 21:00:00 14.5 3 Oeste 16 Sudoeste 0.1 1003.2 0.1 82
2018-11-19 20:00:00 14.7 8 Sudoeste 14 Sudoeste 0 1003 0.2 79
2018-11-19 19:00:00 13.7 8 Sudoeste 18 Sudoeste 0 1003.2 0.8 78
2018-11-19 18:00:00 14.7 10 Sudoeste 25 Sudoeste 0 1003.1 0.5 74
2018-11-19 17:00:00 16.6 16 Sudoeste 29 Sudoeste 0 1002.8 -0.2 67
2018-11-19 16:00:00 17.8 18 Sudoeste 30 Sudoeste 0 1002.4 -1 64
2018-11-19 15:00:00 18.3 9 Sudoeste 16 Sudoeste 0 1002.6 -1 66
2018-11-19 14:00:00 16.3 0 Calma 13 Oeste 1 1003 -0.5 74
2018-11-19 13:00:00 16.1 3 Norte 14 Norte 0.2 1003.4 0.3 71
2018-11-19 12:00:00 17 4 Noroeste 13 Sudoeste 0 1003.6 1.1 66
2018-11-19 11:00:00 16.3 7 Oeste 13 Oeste 0 1003.5 1.7 76
2018-11-19 10:00:00 13.2 8 Oeste 14 Oeste 0 1003.1 1.8 91
2018-11-19 09:00:00 12.3 0 Calma 6 Oeste 0 1002.5 1.6 91
2018-11-19 08:00:00 12.1 0 Calma 8 Oeste 0 1001.8 1.3 92
2018-11-19 07:00:00 12.1 5 Oeste 8 Oeste 0.1 1001.3 0.9 92
2018-11-19 06:00:00 12.2 4 Noroeste 11 Noroeste 0 1000.9 0.6 92
2018-11-19 05:00:00 12.1 3 Noroeste 11 Noroeste 0 1000.5 0.4 92
2018-11-19 04:00:00 12 0 Calma 5 Noroeste 0 1000.4 0.6 93
2018-11-19 03:00:00 11.6 0 Calma 5 Noroeste 0 1000.3 0.5 93
2018-11-19 02:00:00 11.8 0 Calma 6 Noroeste 0 1000.1 0.2 93
2018-11-19 01:00:00 12.3 2 Norte 8 Norte 0.1 999.8 0.1 93
2018-11-19 00:00:00 12 4 Noroeste 6 Norte 0 999.8 0.3 93
2018-11-18 23:00:00 12 2 Noroeste 9 Noroeste 0.2 999.9 0.7 92
2018-11-18 22:00:00 11.6 0 Calma 8 Noroeste 0 999.7 0.8 91
2018-11-18 21:00:00 11.9 3 Noroeste 6 Noroeste 0 999.5 0.8 89
2018-11-18 20:00:00 12.6 0 Calma 7 Nordeste 0.3 999.2 0.9 89
2018-11-18 19:00:00 13 2 Nordeste 8 Nordeste 0 998.9 0.5 87
2018-11-18 18:00:00 13.7 2 Este 13 Este 0 998.7 0.2 83
2018-11-18 17:00:00 14.5 6 Este 12 Sudeste 0.1 998.3 -0.8 85
2018-11-18 16:00:00 14.1 4 Este 13 Sur 0.1 998.4 -1.1 88
2018-11-18 15:00:00 13.7 3 Sudeste 16 Sudeste 0.4 998.5 -1.5 87
2018-11-18 14:00:00 14.7 6 Sudeste 13 Este 0 999.1 -1.1 91
2018-11-18 13:00:00 14.4 5 Nordeste 18 Este 2.7 999.5 -1 93
2018-11-18 12:00:00 13.5 11 Este 19 Este 7.2 1000 -0.9 92
2018-11-18 11:00:00 14.2 8 Este 18 Este 0 1000.2 0.4 93
2018-11-18 10:00:00 13.3 8 Este 14 Este 0 1000.5 0.1 93
2018-11-18 09:00:00 12.9 5 Este 9 Este 0 1000.9 0.7 93
2018-11-18 08:00:00 12.7 8 Este 17 Oeste 4.2 999.8 -0.9 93
2018-11-18 07:00:00 13.2 15 Oeste 36 Sudoeste 3.2 1000.4 -1 93
2018-11-18 06:00:00 14.9 18 Sur 31 Sudoeste 7.2 1000.2 -2 93
2018-11-18 05:00:00 14.7 10 Sudoeste 29 Sur 7.3 1000.7 -2.4 94
2018-11-18 04:00:00 15.2 13 Sudoeste 34 Sudoeste 2.5 1001.4 -2.1 93
2018-11-18 03:00:00 15 17 Sudoeste 34 Sudoeste 2 1002.2 -2.2 93
2018-11-18 02:00:00 13.7 17 Sur 55 Sur 26.9 1003.1 -2.1 93
2018-11-18 01:00:00 17.3 18 Sudeste 39 Sudeste 0 1003.5 -2 79
2018-11-18 00:00:00 17.6 19 Sudeste 40 Sur 0 1004.4 -0.8 78
2018-11-17 23:00:00 17.6 18 Sudeste 41 Sudeste 0 1005.2 -1.2 77
2018-11-17 22:00:00 17.6 19 Sur 36 Sudeste 0 1005.5 -1.6 77
2018-11-17 21:00:00 17.5 17 Sudeste 44 Sur 0 1005.2 -1.9 76
2018-11-17 20:00:00 17.6 14 Sudeste 29 Sudeste 0 1006.4 -1.5 77
2018-11-17 19:00:00 17.7 13 Sudeste 28 Sur 0 1007.1 -0.8 76
2018-11-17 18:00:00 17.7 11 Sudeste 26 Sur 0 1007.1 -1.7 75
2018-11-17 17:00:00 18.1 12 Sur 27 Sudeste 0 1007.9 -1.6 74
2018-11-17 16:00:00 17.8 10 Sudeste 27 Sudeste 0 1007.9 -2.6 75
2018-11-17 15:00:00 17.9 13 Sudeste 27 Este 0 1008.8 -2.5 76
2018-11-17 14:00:00 17.6 9 Sudeste 22 Sudeste 0 1009.5 -2.1 81
2018-11-17 13:00:00 17.1 9 Sudeste 23 Sur 0 1010.5 -1.5 80
2018-11-17 12:00:00 17.8 10 Sudeste 24 Sudeste 0 1011.3 -0.5 77
2018-11-17 11:00:00 18.7 11 Este 25 Este 0 1011.6 0.2 78
2018-11-17 10:00:00 15.3 9 Este 22 Este 0 1012 0.9 87
2018-11-17 09:00:00 15.3 10 Sudeste 23 Este 0 1011.8 0.6 89
2018-11-17 08:00:00 14.4 10 Este 18 Este 0 1011.4 0.2 91
2018-11-17 07:00:00 13.5 7 Nordeste 16 Nordeste 0 1011.1 -0.2 91
2018-11-17 06:00:00 13 5 Nordeste 11 Este 0 1011.2 -1.3 92
2018-11-17 05:00:00 12.6 5 Nordeste 16 Este 0 1011.2 -1.5 92
2018-11-17 04:00:00 12.5 8 Este 13 Este 0 1011.3 -1.5 92
2018-11-17 03:00:00 11.4 0 Calma 4 Norte 0 1012.5 -0.5 91
2018-11-17 02:00:00 11.7 0 Calma 8 Nordeste 0 1012.7 -0.4 91
2018-11-17 01:00:00 12.7 5 Este 8 Este 0 1012.8 -0.3 91
2018-11-17 00:00:00 11.7 0 Calma -- -- 0 1013 -0.2 90
2018-11-16 23:00:00 12 0 Calma 0 Calma 0 1013.1 -0.1 88
2018-11-16 22:00:00 12.6 0 Calma 3 Nordeste 0 1013.1 -0.3 85
2018-11-16 21:00:00 13 0 Calma 2 Noroeste 0 1013.2 -0.3 83
2018-11-16 20:00:00 14 0 Calma 4 Norte 0 1013.2 -0.3 78
2018-11-16 19:00:00 15.2 0 Calma 5 Sur 0 1013.4 -0.1 69
2018-11-16 18:00:00 17.8 0 Calma 8 Sudoeste 0 1013.5 -0.4 58
2018-11-16 17:00:00 19.1 5 Sudoeste 14 Sudoeste 0 1013.5 -0.5 52
2018-11-16 16:00:00 20.2 8 Sur 15 Sur 0 1013.5 -0.8 51
2018-11-16 15:00:00 20.3 8 Sudeste 18 Este 0 1013.9 -1.4 51
2018-11-16 14:00:00 20.2 6 Este 14 Este 0 1014 -1.5 55
2018-11-16 13:00:00 19.5 8 Este 17 Este 0 1014.3 -1.1 59
2018-11-16 12:00:00 17.8 6 Este 13 Este 0 1015.3 0.2 66
2018-11-16 11:00:00 16.7 5 Este 12 Este 0 1015.5 0.7 72
2018-11-16 10:00:00 14.1 3 Nordeste 9 Nordeste 0 1015.4 1 88
2018-11-16 09:00:00 11.7 3 Nordeste 7 Nordeste 0 1015.1 0.6 94
2018-11-16 08:00:00 10.6 3 Este 6 Norte 0 1014.8 0.6 94
2018-11-16 07:00:00 10.7 2 Norte 4 Este 0 1014.4 0.2 94
2018-11-16 06:00:00 10.9 0 Calma 6 Norte 0 1014.5 -0.1 94
2018-11-16 05:00:00 10.8 2 Noroeste 4 Noroeste 0 1014.2 -0.7 93
2018-11-16 04:00:00 11.1 0 Calma 6 Norte 0 1014.2 -1.3 93
2018-11-16 03:00:00 12.2 2 Norte 5 Norte 0 1014.6 -1 93
2018-11-16 02:00:00 12.2 0 Calma 6 Norte 0 1014.9 -0.4 93
2018-11-16 01:00:00 12.9 2 Nordeste 6 Norte 0 1015.5 0.7 94
2018-11-16 00:00:00 13 2 Norte 5 Nordeste 0 1015.6 1.5 92
2018-11-15 23:00:00 13.7 0 Calma 5 Este 0 1015.3 1.3 92
2018-11-15 22:00:00 14.1 0 Calma 7 Nordeste 0 1014.8 1.1 91
2018-11-15 21:00:00 14.6 3 Nordeste 4 Nordeste 0 1014.1 0.7 91
2018-11-15 20:00:00 15.2 3 Este 5 Este 0 1014 0.6 89
2018-11-15 19:00:00 16 0 Calma 9 Este 0 1013.7 0.6 85
2018-11-15 18:00:00 17 5 Este 14 Sudeste 0 1013.4 0.2 82
2018-11-15 17:00:00 18.4 7 Sudeste 23 Este 0 1013.4 -0.3 74
2018-11-15 16:00:00 19.3 8 Sudeste 23 Este 0 1013.1 -0.9 70
2018-11-15 15:00:00 19.5 11 Sudeste 23 Sudeste 0 1013.2 -1.2 71
2018-11-15 14:00:00 19 11 Sudeste 22 Sudeste 0 1013.7 -0.5 71
2018-11-15 13:00:00 18.8 14 Sudeste 26 Este 0 1014 0.4 70
2018-11-15 12:00:00 18.8 11 Sudeste 27 Este 0 1014.4 1.4 72
2018-11-15 11:00:00 17 12 Este 21 Este 0 1014.2 1.9 76
2018-11-15 10:00:00 16.2 11 Este 21 Este 0 1013.6 1.8 77
2018-11-15 09:00:00 14.1 8 Este 15 Este 0 1013 1.5 83
2018-11-15 08:00:00 14.2 7 Este 14 Este 0 1012.3 0.8 84
2018-11-15 07:00:00 13.9 8 Este 14 Este 0 1011.8 0 84
2018-11-15 06:00:00 14.2 8 Este 15 Este 0 1011.5 -0.4 84
2018-11-15 05:00:00 14.1 7 Este 13 Este 0 1011.5 -0.9 87
2018-11-15 04:00:00 13.2 5 Nordeste 9 Nordeste 0 1011.8 -0.9 91
2018-11-15 03:00:00 13.1 4 Nordeste 9 Este 0 1011.9 -1.1 91
2018-11-15 02:00:00 13 0 Calma 9 Este 0 1012.4 -1.2 90
2018-11-15 01:00:00 13.5 0 Calma 5 Nordeste 0 1012.7 -1.2 90
2018-11-15 00:00:00 14.2 2 Nordeste 6 Nordeste 0 1013 -0.7 88
2018-11-14 23:00:00 15.1 3 Este 7 Sudeste 0 1013.6 -0.2 85
2018-11-14 22:00:00 15 3 Este 5 Este 0 1013.9 0.2 84
2018-11-14 21:00:00 15.3 2 Nordeste 6 Este 0 1013.7 0.1 80
2018-11-14 20:00:00 16.2 0 Calma -- -- 0 1013.8 0.2 76
2018-11-14 19:00:00 17 0 Calma 6 Sudeste 0 1013.7 -0.1 67
2018-11-14 18:00:00 19.6 3 Sudeste 11 Sur 0 1013.6 -0.5 55
2018-11-14 17:00:00 20.5 5 Sudeste 20 Sudeste 0 1013.6 -1.1 52
2018-11-14 16:00:00 21.3 8 Sudeste 19 Este 0 1013.8 -1.7 50
2018-11-14 15:00:00 21.3 10 Este 21 Este 0 1014.1 -2.2 49
2018-11-14 14:00:00 21.3 12 Este 24 Este 0 1014.7 -2 52
2018-11-14 13:00:00 21 12 Este 23 Sudeste 0 1015.5 -1.5 53
2018-11-14 12:00:00 20.3 8 Este 19 Este 0 1016.3 -0.8 57
2018-11-14 11:00:00 18.5 10 Este 23 Este 0 1016.7 -0.1 62
2018-11-14 10:00:00 17.3 8 Este 20 Este 0 1017 0.3 70
2018-11-14 09:00:00 14.7 7 Este 14 Este 0 1017.1 -0.1 82
2018-11-14 08:00:00 12.9 3 Nordeste 8 Nordeste 0 1016.8 -0.5 91
2018-11-14 07:00:00 12.4 3 Norte 10 Norte 0 1016.7 -1 91
2018-11-14 06:00:00 11.7 3 Norte 5 Nordeste 0 1017.2 -1.1 91
2018-11-14 05:00:00 11.7 2 Norte 5 Norte 0 1017.3 -1.3 90
2018-11-14 04:00:00 12.1 2 Norte 6 Norte 0 1017.7 -1.5 88
2018-11-14 03:00:00 12.8 0 Calma 10 Norte 0 1018.3 -0.9 87
2018-11-14 02:00:00 13.7 4 Norte 10 Norte 0 1018.6 -0.9 87
2018-11-14 01:00:00 13.3 3 Norte 8 Noroeste 0 1019.2 -0.1 86
2018-11-14 00:00:00 14.2 3 Norte 9 Norte 0 1019.2 -0.5 83
2018-11-13 23:00:00 14.5 0 Calma 10 Norte 0 1019.5 0.3 83
2018-11-13 22:00:00 14.1 4 Noroeste 10 Norte 0 1019.3 0.3 83
2018-11-13 21:00:00 14.5 3 Norte 8 Norte 0 1019.7 0.9 79
2018-11-13 20:00:00 15.7 2 Noroeste 8 Noroeste 0 1019.2 0.6 71
2018-11-13 19:00:00 16.6 4 Noroeste 9 Noroeste 0 1019 0.4 67
2018-11-13 18:00:00 18.5 3 Noroeste 11 Noroeste 0 1018.8 0 60
2018-11-13 17:00:00 19.2 6 Norte 12 Norte 0 1018.6 -0.9 58
2018-11-13 16:00:00 19.3 6 Noroeste 16 Norte 0 1018.6 -1.3 59
2018-11-13 15:00:00 17.5 7 Noroeste 17 Noroeste 0 1018.8 -1.7 65
2018-11-13 14:00:00 17.3 5 Norte 18 Norte 0 1019.5 -0.9 66
2018-11-13 13:00:00 16.3 10 Noroeste 18 Noroeste 0 1019.9 -0.4 69
2018-11-13 12:00:00 14.8 6 Norte 17 Norte 0 1020.5 0.8 74
2018-11-13 11:00:00 13.5 10 Norte 24 Norte 0 1020.4 1 79
2018-11-13 10:00:00 11.9 9 Norte 22 Noroeste 0 1020.3 1.3 84
2018-11-13 09:00:00 10.9 7 Norte 19 Noroeste 0 1019.7 0.8 85
2018-11-13 08:00:00 10.6 6 Norte 15 Norte 0 1019.4 0.9 85
2018-11-13 07:00:00 11 9 Norte 17 Norte 0 1019 0.3 82
2018-11-13 06:00:00 11.1 7 Norte 14 Noroeste 0 1018.9 0.1 82
2018-11-13 05:00:00 11.2 5 Norte 19 Oeste 0 1018.5 -0.2 81
2018-11-13 04:00:00 11.7 8 Norte 20 Norte 0 1018.7 0.1 79
2018-11-13 03:00:00 12.2 8 Noroeste 23 Noroeste 0 1018.8 0.3 79
2018-11-13 02:00:00 13 6 Norte 14 Norte 0 1018.7 0.5 83
2018-11-13 01:00:00 13.4 4 Norte 12 Noroeste 0 1018.6 1 83
2018-11-13 00:00:00 13.6 6 Norte 12 Noroeste 0 1018.5 1.2 83
2018-11-12 23:00:00 13.7 3 Noroeste 14 Noroeste 0 1018.2 1.1 84
2018-11-12 22:00:00 13.4 5 Noroeste 12 Noroeste 0 1017.6 1.2 88
2018-11-12 21:00:00 13.6 0 Calma 9 Norte 0 1017.3 1.7 88
2018-11-12 20:00:00 14.1 4 Nordeste 11 Este 0 1017.1 2.1 87
2018-11-12 19:00:00 14.6 6 Este 15 Este 0.2 1016.4 2.1 87
2018-11-12 18:00:00 15.8 6 Este 10 Este 0 1015.6 1.5 82
2018-11-12 17:00:00 16.5 0 Calma 9 Sur 0.1 1015 1 74
2018-11-12 16:00:00 16.8 5 Sudeste 12 Sur 0 1014.3 0.1 73
2018-11-12 15:00:00 16.9 0 Calma 12 Norte 0 1014.1 -0.1 70
2018-11-12 14:00:00 16.8 7 Noroeste 12 Norte 0 1014 -0.3 72
2018-11-12 13:00:00 16.7 6 Norte 14 Norte 0 1014.2 1.5 74
2018-11-12 12:00:00 15.3 5 Noroeste 12 Norte 0 1014.2 2.4 86
2018-11-12 11:00:00 14.9 0 Calma 14 Norte 0 1014.3 2.6 88
2018-11-12 10:00:00 14.1 4 Noroeste 12 Noroeste 0 1012.7 2.1 89
2018-11-12 09:00:00 14.5 5 Noroeste 15 Sudoeste 0.8 1011.8 1.1 92
2018-11-12 08:00:00 15 5 Sur 14 Este 0.4 1011.7 1.3 92
2018-11-12 07:00:00 14.9 0 Calma 17 Sudeste 0.6 1010.6 0.2 92
2018-11-12 06:00:00 14.9 2 Este 10 Este 0.9 1010.7 0.5 92
2018-11-12 05:00:00 14.9 0 Calma 9 Oeste 0 1010.4 0.1 92
2018-11-12 04:00:00 15.1 5 Oeste 12 Oeste 0 1010.4 0.5 92
2018-11-12 03:00:00 15.3 6 Sudoeste 17 Sur 0.5 1010.2 -0.3 92
2018-11-12 02:00:00 15.3 12 Sur 20 Sudoeste 0.9 1010.3 0.1 91
2018-11-12 01:00:00 14.9 8 Sur 17 Sur 1.3 1009.9 -0.7 90
2018-11-12 00:00:00 15 10 Sudoeste 28 Sudoeste 0.9 1010.5 -0.4 88
2018-11-11 23:00:00 16.3 13 Sur 25 Sur 0.2 1010.2 -0.6 90
2018-11-11 22:00:00 16.3 14 Sudoeste 27 Sudoeste 0.2 1010.6 0 89
2018-11-11 21:00:00 17.2 9 Sudoeste 20 Sudoeste 0 1010.9 0.3 79
2018-11-11 20:00:00 17.3 11 Sudoeste 23 Sudoeste 0 1010.8 -0.3 78
2018-11-11 19:00:00 17.4 12 Sudoeste 22 Sudoeste 0 1010.6 -0.4 77
2018-11-11 18:00:00 17.7 12 Sudoeste 22 Sudoeste 0 1010.6 -1 75
2018-11-11 17:00:00 18.6 13 Sudoeste 25 Sur 0 1011.1 -1.1 70
2018-11-11 16:00:00 19.7 16 Sur 26 Sudoeste 0 1011 -1.9 67
2018-11-11 15:00:00 19.3 14 Sur 26 Sudoeste 0 1011.6 -2.3 67
2018-11-11 14:00:00 20.6 13 Sudoeste 26 Sudoeste 0 1012.2 -2.4 69
2018-11-11 13:00:00 19.9 14 Sudoeste 24 Sudoeste 0 1012.9 -2.1 68
2018-11-11 12:00:00 18.8 12 Sudoeste 21 Sur 0 1013.9 -0.9 77
2018-11-11 11:00:00 18.2 10 Sudoeste 19 Sur 0 1014.6 0 84
2018-11-11 10:00:00 17.6 9 Sudoeste 18 Sudoeste 0 1015 0.3 91
2018-11-11 09:00:00 17.3 12 Sudoeste 19 Sudoeste 0 1014.8 -0.2 91
2018-11-11 08:00:00 16.7 12 Sudoeste 20 Sudoeste 0 1014.6 -0.6 92
2018-11-11 07:00:00 16.5 5 Sudoeste 18 Sudoeste 0.2 1014.7 -0.8 92
2018-11-11 06:00:00 16.5 9 Sudoeste 17 Oeste 0 1015 -0.8 92
2018-11-11 05:00:00 16.6 9 Sudoeste 19 Sudoeste 0.1 1015.2 -0.9 92
2018-11-11 04:00:00 16.3 7 Oeste 14 Oeste 0 1015.5 -1.3 92
2018-11-11 03:00:00 15.5 5 Oeste 14 Sudoeste 0 1015.8 -1.4 91
2018-11-11 02:00:00 15.9 6 Sudoeste 20 Oeste 0 1016.1 -1.1 89
2018-11-11 01:00:00 16.7 9 Oeste 18 Sudoeste 0 1016.8 -0.3 89
2018-11-11 00:00:00 16.5 8 Sudoeste 18 Oeste 0 1017.2 0.2 91
2018-11-10 23:00:00 16.3 9 Oeste 17 Sudoeste 0 1017.2 0.1 91
2018-11-10 22:00:00 15.8 7 Sudoeste 13 Sudoeste 0 1017.1 0.1 91
2018-11-10 21:00:00 15.8 7 Sudoeste 14 Sudoeste 0 1017 0 89
2018-11-10 20:00:00 16 9 Sudoeste 18 Sudoeste 0 1017.1 0.1 87
2018-11-10 19:00:00 16.5 9 Sudoeste 23 Sudoeste 0 1017 0.1 82
2018-11-10 18:00:00 17.7 13 Sudoeste 24 Sudoeste 0 1017 -0.3 76
2018-11-10 17:00:00 18 15 Sudoeste 28 Sudoeste 0 1017 -0.7 73
2018-11-10 16:00:00 18.7 14 Sudoeste 28 Sudoeste 0 1016.9 -1.4 70
2018-11-10 15:00:00 18.8 13 Sudoeste 24 Sudoeste 0 1017.3 -2 70
2018-11-10 14:00:00 19.5 14 Sudoeste 30 Sudoeste 0 1017.7 -1.7 65
2018-11-10 13:00:00 17.9 17 Sudoeste 29 Sudoeste 0 1018.3 -1.2 68
2018-11-10 12:00:00 19.2 10 Sudoeste 22 Sudoeste 0 1019.3 0.1 64
2018-11-10 11:00:00 18.4 8 Sur 14 Sur 0 1019.4 0.5 68
2018-11-10 10:00:00 15.8 3 Este 7 Este 0 1019.5 0.5 83
2018-11-10 09:00:00 12.9 0 Calma 5 Nordeste 0 1019.2 0.2 91
2018-11-10 08:00:00 11.7 2 Nordeste 6 Nordeste 0 1018.9 -0.4 91
2018-11-10 07:00:00 12.3 3 Este 6 Este 0 1019 -1 91
2018-11-10 06:00:00 12.5 0 Calma 9 Noroeste 0 1019 -1 88
2018-11-10 05:00:00 13.2 0 Calma 4 Este 0 1019.3 -1.1 88
2018-11-10 04:00:00 12.4 0 Calma 3 Nordeste 0 1020 -1 88
2018-11-10 03:00:00 12 0 Calma 4 Sur 0 1020 -1.3 87
2018-11-10 02:00:00 11.9 0 Calma 8 Noroeste 0 1020.4 -1.3 86
2018-11-10 01:00:00 11.9 4 Noroeste 8 Noroeste 0 1021 -0.9 86
2018-11-10 00:00:00 12.1 0 Calma 8 Oeste 0 1021.3 -0.6 81
2018-11-09 23:00:00 13.2 0 Calma 6 Oeste 0 1021.7 0 78
2018-11-09 22:00:00 13.5 4 Oeste 12 Oeste 0 1021.9 0.3 75
2018-11-09 21:00:00 14 7 Oeste 19 Oeste 0 1021.9 0.4 71
2018-11-09 20:00:00 14.6 11 Oeste 28 Oeste 0 1021.7 0.1 67
2018-11-09 19:00:00 15.3 13 Oeste 28 Oeste 0 1021.6 0.1 67
2018-11-09 18:00:00 16.1 15 Oeste 28 Sudoeste 0 1021.5 -0.3 61
2018-11-09 17:00:00 17 14 Sudoeste 26 Sudoeste 0 1021.6 -1.1 57
2018-11-09 16:00:00 17.6 12 Sudoeste 22 Sudoeste 0 1021.5 -2.2 52
2018-11-09 15:00:00 17.6 11 Sudoeste 19 Sur 0 1021.8 -1.9 53
2018-11-09 14:00:00 17.2 10 Sur 17 Sur 0 1022.7 -1.1 53
2018-11-09 13:00:00 17.2 10 Sudoeste 15 Sudoeste 0 1023.7 -0.2 52
2018-11-09 12:00:00 17.2 6 Sur 10 Sur 0 1023.7 0.4 51
2018-11-09 11:00:00 15.9 2 Oeste 7 Oeste 0 1023.8 0.9 63
2018-11-09 10:00:00 12 2 Noroeste 6 Noroeste 0 1023.9 1.5 79
2018-11-09 09:00:00 9.5 0 Calma 9 Norte 0 1023.3 1.2 91
2018-11-09 08:00:00 7.2 2 Norte 5 Norte 0 1022.9 1.4 91
2018-11-09 07:00:00 8 0 Calma 8 Noroeste 0 1022.4 0.9 90
2018-11-09 06:00:00 8.8 4 Noroeste 10 Noroeste 0 1022.1 0.8 91
2018-11-09 05:00:00 9.2 5 Noroeste 9 Noroeste 0 1021.5 0.5 89
2018-11-09 04:00:00 8.9 3 Noroeste 6 Noroeste 0 1021.5 0.7 87
2018-11-09 03:00:00 9.3 3 Noroeste 7 Oeste 0 1021.3 0.5 81
2018-11-09 02:00:00 10.6 2 Noroeste 9 Noroeste 0 1021 0.6 77
2018-11-09 01:00:00 10.9 4 Noroeste 8 Oeste 0 1020.8 1.2 77
2018-11-09 00:00:00 11.4 0 Calma 11 Oeste 0 1020.8 2.1 73